Terminal Aerodrome Forecast
Issued by NWS

Home | Current Version | Previous Version | Text Only | Print | Product List | Glossary On
Versions: 1 2 3 4 5 6 7 8 9 10 11 12 13 14
564
FTUS44 KEPZ 291120
TAFDMN
TAF
KDMN 291120Z 2912/3012 30018G27KT P6SM BKN100
     FM292000 30013KT P6SM SCT100
     FM300200 29006KT P6SM SKC=

USA.gov is the U.S. government's official web portal to all federal, state and local government web resources and services.